Terminal Aerodrome Forecast
Issued by NWS

Home | Current Version | Previous Version | Text Only | Print | Product List | Glossary On
Versions: 1 2 3 4 5 6 7 8 9 10 11 12 13 14
540
FTPA31 PHFO 051135
TAFHKO
TAF
PHKO 051135Z 0512/0612 VRB03KT P6SM FEW025
     FM052100 29005KT P6SM SCT060
     FM060200 24005KT P6SM BKN060
     FM060600 15005KT P6SM BKN060=

USA.gov is the U.S. government's official web portal to all federal, state and local government web resources and services.